createdAt,value
2018-08-27T00:01:49.672Z,1.77
2018-08-27T00:04:19.309Z,2.20
2018-08-27T00:06:47.836Z,2.53
2018-08-27T00:09:16.429Z,2.00
2018-08-27T00:11:45.009Z,1.90
2018-08-27T00:14:13.660Z,2.10
2018-08-27T00:16:42.303Z,2.13
2018-08-27T00:19:10.864Z,2.20
2018-08-27T00:21:39.524Z,2.17
2018-08-27T00:24:08.079Z,2.10
2018-08-27T00:26:36.694Z,1.77
2018-08-27T00:29:05.277Z,2.30
2018-08-27T00:31:33.897Z,1.90
2018-08-27T00:34:02.501Z,1.83
2018-08-27T00:36:31.115Z,2.10
2018-08-27T00:38:59.709Z,1.80
2018-08-27T00:41:28.326Z,2.03
2018-08-27T00:43:56.844Z,1.90
2018-08-27T00:46:25.411Z,1.83
2018-08-27T00:48:53.986Z,2.00
2018-08-27T00:51:22.583Z,1.87
2018-08-27T00:53:51.199Z,1.80
2018-08-27T00:56:19.815Z,1.90
2018-08-27T00:58:48.484Z,2.00
2018-08-27T01:01:17.076Z,2.10
2018-08-27T01:03:45.635Z,1.90
2018-08-27T01:06:14.371Z,2.00
2018-08-27T01:08:42.920Z,2.10
2018-08-27T01:11:11.458Z,2.00
2018-08-27T01:13:40.024Z,1.80
2018-08-27T01:16:08.754Z,2.00
2018-08-27T01:18:37.418Z,1.87
2018-08-27T01:21:06.434Z,1.83
2018-08-27T01:23:35.092Z,1.73
2018-08-27T01:26:03.619Z,2.37
2018-08-27T01:28:32.284Z,2.00
2018-08-27T01:31:00.864Z,2.20
2018-08-27T01:33:29.429Z,1.90
2018-08-27T01:35:58.052Z,2.37
2018-08-27T01:38:26.683Z,2.77
2018-08-27T01:40:55.224Z,2.00
2018-08-27T01:43:23.822Z,2.03
2018-08-27T01:45:52.415Z,1.97
2018-08-27T01:48:22.029Z,2.13
2018-08-27T01:50:50.641Z,2.07
2018-08-27T01:53:19.325Z,2.00
2018-08-27T01:55:47.875Z,1.90
2018-08-27T01:58:16.509Z,2.40
2018-08-27T02:00:45.031Z,2.20
2018-08-27T02:03:15.698Z,2.23
2018-08-27T02:05:44.242Z,2.10
2018-08-27T02:08:12.837Z,2.30
2018-08-27T02:10:41.429Z,1.97
2018-08-27T02:13:10.010Z,1.67
2018-08-27T02:15:38.679Z,2.03
2018-08-27T02:18:07.294Z,2.40
2018-08-27T02:20:35.941Z,1.93
2018-08-27T02:23:04.773Z,2.47
2018-08-27T02:25:33.415Z,2.30
2018-08-27T02:28:01.913Z,2.00
2018-08-27T02:30:30.544Z,2.20
2018-08-27T02:32:59.125Z,2.23
2018-08-27T02:35:27.697Z,2.17
2018-08-27T02:37:56.353Z,2.40
2018-08-27T02:40:24.891Z,2.90
2018-08-27T02:42:53.609Z,2.40
2018-08-27T02:45:22.236Z,2.13
2018-08-27T02:47:50.853Z,2.77
2018-08-27T02:50:19.443Z,2.70
2018-08-27T02:52:48.020Z,2.37
2018-08-27T02:55:16.599Z,2.40
2018-08-27T02:57:45.132Z,2.63
2018-08-27T03:00:13.855Z,2.37
2018-08-27T03:02:42.481Z,2.40
2018-08-27T03:05:11.049Z,2.27
2018-08-27T03:07:39.602Z,2.20
2018-08-27T03:10:08.263Z,2.13
2018-08-27T03:12:36.850Z,2.63
2018-08-27T03:15:05.911Z,2.60
2018-08-27T03:17:34.487Z,2.50
2018-08-27T03:20:03.747Z,3.13
2018-08-27T03:22:32.338Z,2.90
2018-08-27T03:25:00.997Z,2.70
2018-08-27T03:27:29.584Z,2.57
2018-08-27T03:29:58.146Z,2.43
2018-08-27T03:32:26.769Z,2.10
2018-08-27T03:34:55.359Z,2.40
2018-08-27T03:37:23.994Z,2.33
2018-08-27T03:39:52.566Z,2.07
2018-08-27T03:42:21.146Z,2.20
2018-08-27T03:44:49.800Z,2.77
2018-08-27T03:47:18.674Z,2.73
2018-08-27T03:49:47.244Z,2.93
2018-08-27T03:52:15.806Z,2.80
2018-08-27T03:54:44.441Z,3.43
2018-08-27T03:57:13.024Z,3.03
2018-08-27T03:59:41.720Z,2.83
2018-08-27T04:02:10.250Z,3.50
2018-08-27T04:04:38.851Z,2.53
2018-08-27T04:07:07.476Z,2.50
2018-08-27T04:09:36.268Z,2.90
2018-08-27T04:12:05.167Z,2.70
2018-08-27T04:14:34.097Z,2.67
2018-08-27T04:17:02.832Z,3.03
2018-08-27T04:19:31.667Z,2.70
2018-08-27T04:22:00.529Z,2.67
2018-08-27T04:24:29.416Z,2.67
2018-08-27T04:26:58.198Z,3.50
2018-08-27T04:29:26.968Z,2.70
2018-08-27T04:31:55.880Z,2.53
2018-08-27T04:34:24.704Z,2.57
2018-08-27T04:36:53.482Z,2.40
2018-08-27T04:39:22.045Z,2.73
2018-08-27T04:41:50.621Z,3.00
2018-08-27T04:44:19.237Z,3.10
2018-08-27T04:46:47.852Z,2.57
2018-08-27T04:49:16.503Z,2.40
2018-08-27T04:51:45.082Z,2.90
2018-08-27T04:54:13.697Z,2.33
2018-08-27T04:56:42.222Z,2.97
2018-08-27T04:59:31.805Z,2.80
2018-08-27T05:02:00.377Z,2.47
2018-08-27T05:04:29.001Z,2.30
2018-08-27T05:06:57.552Z,3.13
2018-08-27T05:09:26.265Z,2.87
2018-08-27T05:11:54.832Z,3.50
2018-08-27T05:14:23.456Z,3.37
2018-08-27T05:16:52.008Z,4.07
2018-08-27T05:19:20.508Z,3.60
2018-08-27T05:21:49.225Z,3.20
2018-08-27T05:24:17.827Z,3.73
2018-08-27T05:26:46.401Z,3.23
2018-08-27T05:29:14.962Z,3.30
2018-08-27T05:31:43.538Z,2.80
2018-08-27T05:34:12.147Z,3.50
2018-08-27T05:36:40.785Z,2.70
2018-08-27T05:39:10.130Z,3.23
2018-08-27T05:41:39.005Z,3.10
2018-08-27T05:44:07.678Z,3.90
2018-08-27T05:46:36.293Z,3.10
2018-08-27T05:49:04.903Z,3.13
2018-08-27T05:51:33.496Z,3.30
2018-08-27T05:54:02.126Z,4.10
2018-08-27T05:56:30.694Z,3.10
2018-08-27T05:58:59.266Z,3.13
2018-08-27T06:01:27.836Z,2.80
2018-08-27T06:03:56.430Z,2.63
2018-08-27T06:06:25.017Z,2.70
2018-08-27T06:08:53.584Z,3.10
2018-08-27T06:11:22.145Z,4.00
2018-08-27T06:13:50.744Z,4.30
2018-08-27T06:16:19.548Z,4.10
2018-08-27T06:18:48.122Z,4.40
2018-08-27T06:21:16.739Z,3.73
2018-08-27T06:23:45.363Z,3.57
2018-08-27T06:26:13.882Z,3.10
2018-08-27T06:28:42.483Z,3.17
2018-08-27T06:31:11.023Z,3.53
2018-08-27T06:33:40.674Z,3.60
2018-08-27T06:36:09.276Z,3.30
2018-08-27T06:38:37.814Z,3.53
2018-08-27T06:41:06.574Z,3.40
2018-08-27T06:43:35.108Z,3.90
2018-08-27T06:46:03.715Z,3.80
2018-08-27T06:48:32.291Z,3.90
2018-08-27T06:51:01.058Z,3.20
2018-08-27T06:53:29.600Z,3.10
2018-08-27T06:55:58.182Z,3.07
2018-08-27T06:58:26.779Z,2.57
2018-08-27T07:00:55.410Z,2.63
2018-08-27T07:03:23.942Z,2.20
2018-08-27T07:05:53.572Z,2.00
2018-08-27T07:08:22.069Z,2.00
2018-08-27T07:10:50.660Z,2.10
2018-08-27T07:13:19.250Z,2.20
2018-08-27T07:15:47.819Z,2.30
2018-08-27T07:18:16.415Z,2.23
2018-08-27T07:20:45.028Z,2.77
2018-08-27T07:23:14.580Z,2.40
2018-08-27T07:25:43.162Z,2.00
2018-08-27T07:28:11.712Z,1.77
2018-08-27T07:30:40.285Z,2.20
2018-08-27T07:33:08.827Z,2.00
2018-08-27T07:35:37.472Z,2.30
2018-08-27T07:38:06.141Z,1.90
2018-08-27T07:40:34.857Z,1.77
2018-08-27T07:43:03.459Z,2.00
2018-08-27T07:45:32.038Z,1.80
2018-08-27T07:48:00.574Z,1.80
2018-08-27T07:50:29.227Z,1.60
2018-08-27T07:52:57.794Z,1.57
2018-08-27T07:55:26.417Z,1.60
2018-08-27T07:57:54.946Z,1.60
2018-08-27T08:00:24.816Z,2.03
2018-08-27T08:02:54.631Z,2.03
2018-08-27T08:05:23.337Z,1.63
2018-08-27T08:07:52.125Z,1.53
2018-08-27T08:10:21.233Z,1.60
2018-08-27T08:12:51.421Z,1.70
2018-08-27T08:15:20.604Z,1.73
2018-08-27T08:17:49.650Z,1.30
2018-08-27T08:20:18.582Z,1.50
2018-08-27T08:22:47.297Z,1.77
2018-08-27T08:25:15.930Z,1.50
2018-08-27T08:27:44.471Z,1.60
2018-08-27T08:30:13.062Z,1.30
2018-08-27T08:32:41.606Z,1.80
2018-08-27T08:35:10.252Z,1.70
2018-08-27T08:37:38.796Z,1.50
2018-08-27T08:40:07.413Z,1.50
2018-08-27T08:42:36.005Z,2.00
2018-08-27T08:45:04.664Z,1.43
2018-08-27T08:47:33.247Z,1.40
2018-08-27T08:50:01.818Z,1.73
2018-08-27T08:52:30.441Z,1.60
2018-08-27T08:54:58.979Z,1.87
2018-08-27T08:57:27.601Z,1.47
2018-08-27T08:59:56.228Z,1.57
2018-08-27T09:02:24.808Z,1.53
2018-08-27T09:04:53.382Z,2.40
2018-08-27T09:07:22.006Z,1.87
2018-08-27T09:09:50.543Z,1.50
2018-08-27T09:12:19.144Z,1.40
2018-08-27T09:14:47.705Z,1.70
2018-08-27T09:17:16.331Z,1.60
2018-08-27T09:19:44.935Z,1.50
2018-08-27T09:22:13.618Z,1.87
2018-08-27T09:24:42.183Z,1.70
2018-08-27T09:27:10.821Z,2.00
2018-08-27T09:29:39.386Z,1.97
2018-08-27T09:32:08.056Z,2.17
2018-08-27T09:34:36.582Z,1.90
2018-08-27T09:37:05.285Z,1.70
2018-08-27T09:39:33.805Z,1.53
2018-08-27T09:42:02.409Z,1.90
2018-08-27T09:44:30.998Z,1.30
2018-08-27T09:46:59.815Z,1.93
2018-08-27T09:49:28.235Z,1.33
2018-08-27T09:51:56.795Z,1.90
2018-08-27T09:54:25.384Z,1.80
2018-08-27T09:56:54.028Z,1.70
2018-08-27T09:59:22.585Z,1.83
2018-08-27T10:01:56.417Z,2.30
2018-08-27T10:04:24.990Z,2.03
2018-08-27T10:06:53.583Z,1.93
2018-08-27T10:09:22.115Z,2.00
2018-08-27T10:11:50.741Z,1.87
2018-08-27T10:14:19.356Z,2.23
2018-08-27T10:16:49.038Z,2.20
2018-08-27T10:19:17.662Z,2.00
2018-08-27T10:21:46.230Z,2.00
2018-08-27T10:24:14.728Z,1.60
2018-08-27T10:26:43.417Z,2.27
2018-08-27T10:29:12.073Z,2.50
2018-08-27T10:31:40.712Z,2.17
2018-08-27T10:34:09.326Z,2.03
2018-08-27T10:36:37.921Z,2.23
2018-08-27T10:39:08.213Z,1.90
2018-08-27T10:41:36.893Z,2.10
2018-08-27T10:44:05.630Z,2.27
2018-08-27T10:46:34.240Z,1.90
2018-08-27T10:49:02.874Z,2.70
2018-08-27T10:51:31.423Z,2.10
2018-08-27T10:54:00.038Z,2.33
2018-08-27T10:56:28.605Z,2.20
2018-08-27T10:58:57.249Z,2.23
2018-08-27T11:01:25.770Z,2.60
2018-08-27T11:03:55.445Z,2.30
2018-08-27T11:06:23.955Z,2.40
2018-08-27T11:08:52.679Z,2.27
2018-08-27T11:11:21.528Z,2.90
2018-08-27T11:13:50.131Z,2.30
2018-08-27T11:16:18.684Z,2.23
2018-08-27T11:18:47.467Z,2.30
2018-08-27T11:21:16.154Z,2.30
2018-08-27T11:23:44.788Z,2.43
2018-08-27T11:26:13.398Z,2.67
2018-08-27T11:28:41.943Z,2.30
2018-08-27T11:31:10.586Z,2.20
2018-08-27T11:33:39.117Z,2.20
2018-08-27T11:36:07.712Z,2.07
2018-08-27T11:38:36.307Z,2.60
2018-08-27T11:41:06.102Z,2.47
2018-08-27T11:43:34.728Z,2.20
2018-08-27T11:46:03.303Z,2.00
2018-08-27T11:48:31.949Z,1.80
2018-08-27T11:51:00.519Z,2.53
2018-08-27T11:53:29.143Z,2.20
2018-08-27T11:55:57.719Z,2.30
2018-08-27T11:58:26.305Z,1.97
2018-08-27T12:00:59.140Z,2.23
2018-08-27T12:03:27.806Z,1.83
2018-08-27T12:05:56.389Z,2.23
2018-08-27T12:08:24.974Z,2.60
2018-08-27T12:10:56.966Z,2.10
2018-08-27T12:13:25.581Z,2.20
2018-08-27T12:15:54.152Z,2.33
2018-08-27T12:18:22.818Z,2.13
2018-08-27T12:20:51.459Z,2.00
2018-08-27T12:23:20.027Z,2.40
2018-08-27T12:25:48.609Z,2.37
2018-08-27T12:28:17.206Z,2.80
2018-08-27T12:30:45.805Z,1.90
2018-08-27T12:33:14.358Z,2.30
2018-08-27T12:35:43.037Z,2.90
2018-08-27T12:38:11.623Z,1.90
2018-08-27T12:40:40.188Z,2.23
2018-08-27T12:43:08.808Z,2.00
2018-08-27T12:45:37.532Z,1.90
2018-08-27T12:48:06.166Z,1.80
2018-08-27T12:50:34.732Z,1.67
2018-08-27T12:53:03.315Z,1.80
2018-08-27T12:55:31.907Z,2.40
2018-08-27T12:58:00.534Z,2.00
2018-08-27T13:00:29.182Z,1.97
2018-08-27T13:02:57.800Z,2.07
2018-08-27T13:05:26.339Z,1.80
2018-08-27T13:07:54.964Z,2.10
2018-08-27T13:10:23.622Z,1.70
2018-08-27T13:12:52.293Z,1.70
2018-08-27T13:15:20.857Z,1.93
2018-08-27T13:17:49.501Z,2.20
2018-08-27T13:20:21.933Z,1.87
2018-08-27T13:22:50.589Z,1.87
2018-08-27T13:25:19.184Z,1.87
2018-08-27T13:27:47.781Z,2.00
2018-08-27T13:30:16.385Z,2.00
2018-08-27T13:32:44.998Z,1.93
2018-08-27T13:35:13.627Z,2.87
2018-08-27T13:37:42.184Z,2.00
2018-08-27T13:40:10.956Z,1.83
2018-08-27T13:42:39.469Z,2.00
2018-08-27T13:45:08.159Z,2.40
2018-08-27T13:47:40.547Z,1.90
2018-08-27T13:50:09.210Z,1.67
2018-08-27T13:52:37.808Z,2.10
2018-08-27T13:55:06.433Z,1.80
2018-08-27T13:57:35.054Z,2.07
2018-08-27T14:00:03.754Z,1.73
2018-08-27T14:02:32.295Z,2.10
2018-08-27T14:05:00.961Z,1.93
2018-08-27T14:07:30.515Z,1.90
2018-08-27T14:09:59.134Z,1.70
2018-08-27T14:12:27.795Z,1.77
2018-08-27T14:14:56.546Z,1.80
2018-08-27T14:17:25.113Z,1.50
2018-08-27T14:19:53.883Z,2.00
2018-08-27T14:22:22.354Z,1.77
2018-08-27T14:24:50.977Z,1.83
2018-08-27T14:27:19.568Z,1.53
2018-08-27T14:29:48.218Z,1.67
2018-08-27T14:32:16.793Z,1.70
2018-08-27T14:34:45.361Z,1.50
2018-08-27T14:37:13.950Z,1.60
2018-08-27T14:39:42.539Z,1.20
2018-08-27T14:42:11.146Z,1.30
2018-08-27T14:44:39.826Z,1.60
2018-08-27T14:47:08.393Z,1.20
2018-08-27T14:49:41.170Z,1.57
2018-08-27T14:52:09.861Z,1.50
2018-08-27T14:54:38.487Z,1.50
2018-08-27T14:57:07.078Z,1.27
2018-08-27T14:59:35.701Z,1.57
2018-08-27T15:02:04.317Z,1.40
2018-08-27T15:04:32.957Z,1.30
2018-08-27T15:07:01.609Z,1.40
2018-08-27T15:09:30.215Z,1.40
2018-08-27T15:11:58.810Z,1.63
2018-08-27T15:14:27.362Z,1.53
2018-08-27T15:16:57.023Z,1.40
2018-08-27T15:19:25.651Z,1.57
2018-08-27T15:21:54.301Z,1.37
2018-08-27T15:24:23.944Z,1.63
2018-08-27T15:26:52.539Z,1.73
2018-08-27T15:29:21.106Z,1.93
2018-08-27T15:31:49.645Z,1.77
2018-08-27T15:34:18.186Z,1.83
2018-08-27T15:36:46.808Z,1.97
2018-08-27T15:39:15.408Z,2.00
2018-08-27T15:41:44.013Z,1.77
2018-08-27T15:44:12.650Z,2.00
2018-08-27T15:46:41.334Z,1.63
2018-08-27T15:49:10.416Z,2.10
2018-08-27T15:51:39.499Z,1.73
2018-08-27T15:54:09.263Z,2.03
2018-08-27T15:56:38.174Z,2.13
2018-08-27T15:59:06.810Z,2.40
2018-08-27T16:01:35.507Z,2.00
2018-08-27T16:04:04.135Z,2.33
2018-08-27T16:06:32.771Z,3.27
2018-08-27T16:09:01.339Z,2.50
2018-08-27T16:11:29.948Z,2.20
2018-08-27T16:13:58.554Z,2.03
2018-08-27T16:16:27.187Z,2.30
2018-08-27T16:18:55.803Z,2.33
2018-08-27T16:21:24.466Z,2.27
2018-08-27T16:23:53.014Z,2.30
2018-08-27T16:26:21.665Z,2.43
2018-08-27T16:28:50.237Z,2.40
2018-08-27T16:31:18.854Z,1.73
2018-08-27T16:33:47.419Z,1.90
2018-08-27T16:36:16.057Z,2.07
2018-08-27T16:38:44.630Z,1.83
2018-08-27T16:41:14.298Z,2.30
2018-08-27T16:43:42.875Z,2.10
2018-08-27T16:46:11.467Z,2.00
2018-08-27T16:48:41.163Z,2.00
2018-08-27T16:51:09.884Z,1.90
2018-08-27T16:53:38.507Z,2.20
2018-08-27T16:56:07.208Z,2.10
2018-08-27T16:58:35.896Z,2.20
2018-08-27T17:01:04.474Z,1.87
2018-08-27T17:03:33.078Z,2.10
2018-08-27T17:06:01.665Z,2.10
2018-08-27T17:08:30.398Z,2.20
2018-08-27T17:10:59.040Z,1.83
2018-08-27T17:13:27.659Z,2.07
2018-08-27T17:15:56.333Z,2.10
2018-08-27T17:18:25.037Z,2.00
2018-08-27T17:20:53.644Z,1.97
2018-08-27T17:23:22.257Z,2.07
2018-08-27T17:25:50.914Z,2.00
2018-08-27T17:28:19.563Z,1.73
2018-08-27T17:30:50.249Z,2.33
2018-08-27T17:33:18.996Z,1.90
2018-08-27T17:35:47.597Z,1.30
2018-08-27T17:38:17.181Z,1.50
2018-08-27T17:40:49.544Z,1.80
2018-08-27T17:43:18.239Z,2.67
2018-08-27T17:45:46.935Z,1.80
2018-08-27T17:48:15.622Z,2.00
2018-08-27T17:50:44.440Z,1.90
2018-08-27T17:53:13.064Z,2.30
2018-08-27T17:55:41.633Z,2.40
2018-08-27T17:58:10.274Z,2.33
2018-08-27T18:00:39.917Z,1.83
2018-08-27T18:03:08.517Z,2.20
2018-08-27T18:05:37.068Z,2.17
2018-08-27T18:08:05.732Z,2.20
2018-08-27T18:10:34.307Z,2.23
2018-08-27T18:13:02.895Z,2.63
2018-08-27T18:15:31.460Z,2.00
2018-08-27T18:18:00.193Z,2.40
2018-08-27T18:20:28.794Z,2.00
2018-08-27T18:22:57.510Z,2.13
2018-08-27T18:25:26.117Z,2.50
2018-08-27T18:27:54.758Z,2.40
2018-08-27T18:30:23.402Z,2.50
2018-08-27T18:32:52.018Z,2.27
2018-08-27T18:35:20.705Z,2.53
2018-08-27T18:37:49.285Z,2.10
2018-08-27T18:40:17.870Z,1.83
2018-08-27T18:42:46.497Z,2.17
2018-08-27T18:45:15.123Z,1.97
2018-08-27T18:47:43.696Z,2.00
2018-08-27T18:50:12.456Z,1.83
2018-08-27T18:52:41.059Z,2.10
2018-08-27T18:55:09.740Z,1.90
2018-08-27T18:57:38.394Z,1.90
2018-08-27T19:00:07.001Z,2.07
2018-08-27T19:02:35.624Z,1.77
2018-08-27T19:05:04.379Z,2.03
2018-08-27T19:07:32.954Z,1.80
2018-08-27T19:10:01.549Z,2.00
2018-08-27T19:12:30.216Z,2.40
2018-08-27T19:15:02.442Z,2.53
2018-08-27T19:17:30.983Z,2.07
2018-08-27T19:19:59.712Z,1.90
2018-08-27T19:22:28.298Z,1.93
2018-08-27T19:24:56.968Z,2.40
2018-08-27T19:27:25.534Z,1.87
2018-08-27T19:29:54.163Z,2.30
2018-08-27T19:32:22.820Z,2.00
2018-08-27T19:34:51.384Z,2.00
2018-08-27T19:37:20.162Z,2.03
2018-08-27T19:39:48.724Z,2.10
2018-08-27T19:42:17.330Z,1.80
2018-08-27T19:44:45.929Z,1.60
2018-08-27T19:47:14.510Z,1.60
2018-08-27T19:49:43.158Z,1.80
2018-08-27T19:52:11.724Z,1.60
2018-08-27T19:54:40.379Z,1.57
2018-08-27T19:57:08.944Z,2.03
2018-08-27T19:59:37.582Z,1.70
2018-08-27T20:02:06.302Z,1.80
2018-08-27T20:04:34.892Z,1.57
2018-08-27T20:07:03.482Z,1.40
2018-08-27T20:09:32.159Z,1.70
2018-08-27T20:12:00.740Z,1.43
2018-08-27T20:14:29.439Z,1.60
2018-08-27T20:16:58.084Z,1.80
2018-08-27T20:19:26.691Z,2.33
2018-08-27T20:21:55.286Z,1.83
2018-08-27T20:24:23.875Z,2.20
2018-08-27T20:26:52.473Z,1.60
2018-08-27T20:29:21.068Z,1.80
2018-08-27T20:31:49.835Z,1.90
2018-08-27T20:34:18.474Z,1.40
2018-08-27T20:36:47.083Z,1.60
2018-08-27T20:39:15.782Z,1.80
2018-08-27T20:41:44.298Z,1.80
2018-08-27T20:44:12.904Z,1.90
2018-08-27T20:46:41.461Z,1.77
2018-08-27T20:49:10.141Z,2.20
2018-08-27T20:51:38.775Z,2.17
2018-08-27T20:54:07.364Z,1.80
2018-08-27T20:56:35.984Z,2.03
2018-08-27T20:59:04.662Z,2.07
2018-08-27T21:01:33.254Z,1.77
2018-08-27T21:04:01.834Z,1.50
2018-08-27T21:06:30.422Z,1.80
2018-08-27T21:08:58.953Z,2.37
2018-08-27T21:11:27.551Z,1.73
2018-08-27T21:14:02.243Z,2.40
2018-08-27T21:16:30.923Z,2.27
2018-08-27T21:18:59.520Z,2.03
2018-08-27T21:21:28.147Z,2.33
2018-08-27T21:23:56.783Z,2.20
2018-08-27T21:26:25.377Z,2.00
2018-08-27T21:28:54.060Z,1.80
2018-08-27T21:31:22.731Z,2.10
2018-08-27T21:33:51.287Z,1.73
2018-08-27T21:36:19.919Z,2.43
2018-08-27T21:38:48.543Z,1.73
2018-08-27T21:41:17.150Z,2.37
2018-08-27T21:43:45.727Z,1.93
2018-08-27T21:46:14.306Z,1.80
2018-08-27T21:48:42.870Z,2.20
2018-08-27T21:51:11.473Z,1.70
2018-08-27T21:53:40.018Z,1.57
2018-08-27T21:56:08.595Z,1.97
2018-08-27T21:58:37.178Z,1.70
2018-08-27T22:01:05.893Z,1.90
2018-08-27T22:03:39.816Z,1.77
2018-08-27T22:06:08.388Z,1.90
2018-08-27T22:08:36.986Z,2.37
2018-08-27T22:11:05.602Z,2.00
2018-08-27T22:13:34.213Z,1.80
2018-08-27T22:16:02.850Z,2.03
2018-08-27T22:18:31.466Z,1.77
2018-08-27T22:21:00.073Z,1.83
2018-08-27T22:23:30.261Z,1.60
2018-08-27T22:25:58.900Z,1.70
2018-08-27T22:28:27.625Z,1.83
2018-08-27T22:30:56.235Z,1.90
2018-08-27T22:33:24.804Z,2.00
2018-08-27T22:35:53.472Z,1.77
2018-08-27T22:38:22.165Z,1.97
2018-08-27T22:40:50.759Z,2.10
2018-08-27T22:43:19.369Z,2.27
2018-08-27T22:45:47.987Z,2.80
2018-08-27T22:48:16.541Z,2.03
2018-08-27T22:50:46.147Z,2.13
2018-08-27T22:53:14.729Z,2.90
2018-08-27T22:55:43.293Z,2.47
2018-08-27T22:58:11.871Z,2.50
2018-08-27T23:00:41.572Z,2.83
2018-08-27T23:04:18.163Z,3.17
2018-08-27T23:06:46.770Z,3.40
2018-08-27T23:09:15.342Z,2.57
2018-08-27T23:11:43.983Z,3.17
2018-08-27T23:14:12.598Z,2.63
2018-08-27T23:16:41.243Z,2.67
2018-08-27T23:19:09.933Z,2.70
2018-08-27T23:21:38.627Z,2.37
2018-08-27T23:24:07.235Z,2.20
2018-08-27T23:26:35.863Z,2.60
2018-08-27T23:29:04.435Z,3.07
2018-08-27T23:31:33.080Z,3.53
2018-08-27T23:34:01.691Z,3.50
2018-08-27T23:36:30.234Z,2.20
2018-08-27T23:38:58.844Z,2.37
2018-08-27T23:41:27.547Z,2.97
2018-08-27T23:43:56.161Z,2.80
2018-08-27T23:46:24.749Z,3.23
2018-08-27T23:48:53.394Z,2.50
2018-08-27T23:51:21.993Z,2.67
2018-08-27T23:53:50.581Z,3.20
2018-08-27T23:56:19.180Z,3.13
2018-08-27T23:58:47.763Z,2.70
